createdAt,value
2022-07-30T00:01:48.999Z,2.77
2022-07-30T00:04:16.499Z,4.17
2022-07-30T00:06:43.973Z,3.00
2022-07-30T00:09:11.323Z,1.98
2022-07-30T00:11:38.654Z,2.70
2022-07-30T00:14:06.067Z,5.43
2022-07-30T00:16:34.981Z,2.35
2022-07-30T00:19:02.683Z,5.93
2022-07-30T00:21:38.496Z,2.22
2022-07-30T00:24:08.758Z,2.10
2022-07-30T00:26:36.501Z,4.03
2022-07-30T00:29:04.046Z,2.03
2022-07-30T00:31:31.518Z,1.90
2022-07-30T00:34:01.467Z,4.30
2022-07-30T00:36:29.110Z,4.07
2022-07-30T00:38:56.661Z,2.95
2022-07-30T00:41:24.129Z,2.55
2022-07-30T00:43:51.549Z,2.75
2022-07-30T00:46:19.222Z,1.40
2022-07-30T00:48:46.885Z,4.65
2022-07-30T00:51:15.692Z,3.15
2022-07-30T00:53:43.013Z,2.77
2022-07-30T00:56:10.673Z,1.95
2022-07-30T00:58:38.036Z,10.68
2022-07-30T01:01:05.553Z,1.60
2022-07-30T01:03:32.945Z,1.90
2022-07-30T01:06:00.355Z,2.90
2022-07-30T01:08:29.166Z,2.08
2022-07-30T01:10:56.799Z,2.77
2022-07-30T01:13:25.167Z,1.05
2022-07-30T01:15:52.802Z,1.90
2022-07-30T01:18:22.813Z,0.63
2022-07-30T01:21:02.491Z,2.13
2022-07-30T01:23:38.683Z,0.75
2022-07-30T01:26:19.932Z,2.53
2022-07-30T01:28:52.112Z,3.88
2022-07-30T01:31:26.405Z,3.63
2022-07-30T01:33:57.070Z,3.55
2022-07-30T01:36:28.751Z,0.98
2022-07-30T01:39:01.293Z,0.98
2022-07-30T01:41:31.592Z,2.75
2022-07-30T01:44:02.754Z,3.20
2022-07-30T01:46:32.003Z,0.75
2022-07-30T01:49:01.378Z,1.95
2022-07-30T01:51:37.465Z,1.25
2022-07-30T01:54:08.551Z,2.35
2022-07-30T01:56:38.075Z,3.67
2022-07-30T01:59:09.363Z,4.03
2022-07-30T02:01:37.805Z,2.72
2022-07-30T02:04:07.253Z,2.30
2022-07-30T02:06:42.299Z,2.00
2022-07-30T02:09:19.776Z,1.02
2022-07-30T02:12:09.661Z,4.20
2022-07-30T02:15:10.407Z,3.50
2022-07-30T02:17:42.982Z,1.85
2022-07-30T02:20:14.784Z,3.50
2022-07-30T02:22:49.839Z,3.03
2022-07-30T02:25:21.995Z,2.03
2022-07-30T02:27:56.446Z,3.45
2022-07-30T02:30:27.159Z,1.17
2022-07-30T02:32:58.082Z,3.20
2022-07-30T02:35:27.697Z,2.00
2022-07-30T02:37:55.668Z,2.63
2022-07-30T02:40:25.221Z,2.05
2022-07-30T02:42:54.675Z,2.65
2022-07-30T02:45:26.567Z,1.42
2022-07-30T02:47:57.719Z,1.75
2022-07-30T02:50:26.401Z,0.93
2022-07-30T02:52:58.175Z,1.95
2022-07-30T02:55:28.540Z,3.75
2022-07-30T02:57:59.430Z,1.13
2022-07-30T03:00:29.691Z,1.30
2022-07-30T03:02:58.176Z,3.17
2022-07-30T03:05:27.219Z,1.45
2022-07-30T03:07:56.705Z,0.82
2022-07-30T03:10:27.302Z,1.10
2022-07-30T03:12:56.454Z,4.13
2022-07-30T03:15:26.957Z,0.63
2022-07-30T03:17:55.661Z,5.28
2022-07-30T03:20:28.582Z,2.55
2022-07-30T03:22:58.628Z,0.98
2022-07-30T03:25:30.967Z,3.05
2022-07-30T03:28:02.819Z,1.60
2022-07-30T03:30:34.695Z,3.97
2022-07-30T03:33:02.820Z,3.03
2022-07-30T03:35:31.382Z,1.70
2022-07-30T03:40:29.005Z,1.42
2022-07-30T03:42:57.060Z,3.00
2022-07-30T03:45:27.326Z,1.88
2022-07-30T03:48:04.147Z,4.90
2022-07-30T03:50:35.645Z,4.53
2022-07-30T03:53:06.180Z,1.60
2022-07-30T03:55:39.906Z,3.10
2022-07-30T03:58:48.414Z,1.90
2022-07-30T04:01:16.028Z,5.55
2022-07-30T04:03:45.822Z,3.15
2022-07-30T04:06:13.514Z,4.45
2022-07-30T04:08:40.953Z,3.53
2022-07-30T04:11:10.702Z,1.33
2022-07-30T04:13:49.274Z,5.07
2022-07-30T04:16:39.518Z,2.33
2022-07-30T04:19:17.358Z,3.05
2022-07-30T04:21:48.045Z,2.67
2022-07-30T04:24:16.648Z,1.85
2022-07-30T04:26:45.346Z,0.95
2022-07-30T04:29:13.476Z,1.52
2022-07-30T04:31:46.931Z,3.03
2022-07-30T04:34:34.683Z,3.53
2022-07-30T04:37:04.924Z,4.35
2022-07-30T04:39:32.833Z,1.08
2022-07-30T04:42:00.919Z,4.22
2022-07-30T04:44:38.028Z,3.30
2022-07-30T04:47:34.616Z,1.83
2022-07-30T04:50:42.831Z,1.85
2022-07-30T04:53:13.060Z,3.05
2022-07-30T04:55:48.948Z,0.73
2022-07-30T04:58:20.202Z,5.65
2022-07-30T05:00:49.282Z,1.90
2022-07-30T05:03:21.705Z,2.22
2022-07-30T05:05:57.293Z,1.67
2022-07-30T05:08:28.309Z,1.60
2022-07-30T05:10:57.383Z,2.30
2022-07-30T05:13:27.631Z,3.05
2022-07-30T05:16:03.459Z,1.50
2022-07-30T05:18:31.070Z,3.42
2022-07-30T05:20:59.871Z,1.00
2022-07-30T05:23:34.417Z,1.30
2022-07-30T05:26:10.437Z,4.97
2022-07-30T05:28:49.478Z,3.55
2022-07-30T05:31:31.064Z,2.67
2022-07-30T05:34:03.830Z,3.55
2022-07-30T05:36:44.709Z,2.25
2022-07-30T05:39:14.219Z,2.40
2022-07-30T05:41:54.770Z,4.22
2022-07-30T05:44:34.281Z,2.22
2022-07-30T05:47:02.949Z,2.20
2022-07-30T05:49:30.788Z,4.35
2022-07-30T05:52:07.967Z,6.20
2022-07-30T05:54:35.472Z,2.38
2022-07-30T05:57:15.114Z,2.53
2022-07-30T05:59:44.392Z,3.00
2022-07-30T06:02:28.934Z,2.95
2022-07-30T06:05:16.406Z,1.38
2022-07-30T06:10:15.091Z,0.85
2022-07-30T06:12:44.093Z,1.45
2022-07-30T06:15:15.190Z,0.98
2022-07-30T06:17:48.447Z,1.47
2022-07-30T06:20:47.469Z,2.60
2022-07-30T06:23:22.504Z,2.28
2022-07-30T06:26:14.734Z,2.25
2022-07-30T06:28:42.281Z,3.85
2022-07-30T06:31:25.302Z,1.40
2022-07-30T06:33:53.346Z,1.55
2022-07-30T06:36:21.157Z,1.88
2022-07-30T06:38:58.003Z,5.22
2022-07-30T06:41:39.817Z,1.13
2022-07-30T06:44:08.075Z,2.55
2022-07-30T06:46:51.388Z,4.88
2022-07-30T06:49:24.726Z,3.97
2022-07-30T06:54:22.827Z,4.82
2022-07-30T06:57:09.229Z,4.30
2022-07-30T06:59:56.170Z,4.65
2022-07-30T07:02:50.929Z,3.47
2022-07-30T07:05:29.995Z,2.33
2022-07-30T07:08:00.031Z,5.70
2022-07-30T07:10:36.857Z,4.95
2022-07-30T07:13:17.160Z,7.43
2022-07-30T07:15:48.288Z,4.45
2022-07-30T07:18:20.070Z,4.75
2022-07-30T07:20:52.842Z,5.90
2022-07-30T07:23:22.533Z,4.30
2022-07-30T07:25:56.966Z,4.97
2022-07-30T07:28:29.163Z,7.18
2022-07-30T07:31:01.454Z,2.72
2022-07-30T07:33:29.773Z,3.60
2022-07-30T07:35:57.269Z,2.58
2022-07-30T07:38:28.745Z,2.67
2022-07-30T07:40:57.870Z,1.75
2022-07-30T07:43:26.416Z,2.67
2022-07-30T07:45:59.297Z,6.90
2022-07-30T07:48:32.631Z,4.85
2022-07-30T07:51:47.045Z,2.97
2022-07-30T07:54:21.500Z,3.40
2022-07-30T07:56:53.163Z,9.05
2022-07-30T07:59:40.041Z,8.07
2022-07-30T08:02:19.955Z,3.45
2022-07-30T08:04:58.864Z,4.13
2022-07-30T08:07:42.508Z,2.83
2022-07-30T08:10:16.314Z,4.63
2022-07-30T08:13:47.808Z,4.47
2022-07-30T08:16:15.005Z,3.55
2022-07-30T08:19:01.052Z,3.85
2022-07-30T08:21:33.545Z,2.58
2022-07-30T08:24:06.132Z,2.78
2022-07-30T08:29:02.528Z,3.08
2022-07-30T08:31:31.322Z,2.97
2022-07-30T08:33:59.449Z,3.88
2022-07-30T08:36:27.630Z,2.97
2022-07-30T08:38:56.269Z,2.90
2022-07-30T08:41:27.211Z,2.78
2022-07-30T08:43:55.712Z,3.22
2022-07-30T08:46:28.013Z,4.55
2022-07-30T08:49:10.822Z,2.33
2022-07-30T08:51:42.118Z,4.63
2022-07-30T08:54:41.276Z,2.95
2022-07-30T08:57:09.147Z,8.38
2022-07-30T09:00:00.228Z,3.83
2022-07-30T09:02:31.729Z,3.72
2022-07-30T09:05:04.534Z,3.35
2022-07-30T09:07:33.148Z,2.38
2022-07-30T09:10:02.356Z,2.70
2022-07-30T09:12:40.092Z,4.70
2022-07-30T09:15:10.796Z,2.95
2022-07-30T09:17:51.638Z,3.25
2022-07-30T09:20:30.319Z,1.98
2022-07-30T09:23:00.907Z,2.60
2022-07-30T09:25:37.765Z,1.85
2022-07-30T09:28:33.179Z,3.15
2022-07-30T09:31:22.052Z,1.90
2022-07-30T09:34:24.765Z,4.72
2022-07-30T09:36:56.340Z,4.15
2022-07-30T09:39:59.056Z,2.63
2022-07-30T09:43:03.541Z,1.85
2022-07-30T09:45:34.867Z,6.25
2022-07-30T09:48:04.458Z,2.85
2022-07-30T09:50:33.223Z,2.85
2022-07-30T09:53:26.524Z,2.63
2022-07-30T09:55:54.532Z,1.48
2022-07-30T09:58:27.200Z,1.38
2022-07-30T10:00:58.525Z,3.55
2022-07-30T10:04:24.311Z,3.17
2022-07-30T10:07:03.499Z,2.03
2022-07-30T10:12:14.607Z,4.32
2022-07-30T10:14:52.465Z,2.33
2022-07-30T10:17:21.465Z,2.65
2022-07-30T10:20:15.389Z,4.95
2022-07-30T10:23:07.983Z,4.13
2022-07-30T10:25:49.496Z,3.22
2022-07-30T10:28:40.644Z,3.05
2022-07-30T10:31:47.419Z,4.15
2022-07-30T10:33:56.652Z,2.40
2022-07-30T10:36:25.763Z,2.25
2022-07-30T10:38:55.504Z,3.05
2022-07-30T10:41:44.084Z,1.25
2022-07-30T10:44:33.806Z,3.20
2022-07-30T10:47:07.715Z,1.70
2022-07-30T10:49:41.578Z,2.03
2022-07-30T10:52:11.048Z,4.43
2022-07-30T10:54:43.123Z,1.45
2022-07-30T10:57:15.007Z,2.67
2022-07-30T11:00:10.023Z,1.48
2022-07-30T11:02:39.667Z,2.92
2022-07-30T11:05:27.225Z,1.35
2022-07-30T11:08:45.529Z,1.80
2022-07-30T11:12:02.255Z,2.03
2022-07-30T11:14:56.556Z,1.67
2022-07-30T11:17:24.224Z,3.05
2022-07-30T11:20:12.013Z,1.67
2022-07-30T11:22:41.386Z,3.15
2022-07-30T11:25:12.842Z,2.63
2022-07-30T11:27:46.612Z,2.10
2022-07-30T11:30:34.413Z,3.35
2022-07-30T11:33:32.130Z,2.40
2022-07-30T11:36:12.428Z,3.65
2022-07-30T11:39:06.722Z,6.57
2022-07-30T11:41:34.842Z,5.15
2022-07-30T11:44:31.631Z,5.55
2022-07-30T11:46:59.219Z,1.98
2022-07-30T11:49:35.812Z,4.55
2022-07-30T11:52:03.940Z,4.05
2022-07-30T11:54:31.511Z,5.88
2022-07-30T11:57:04.031Z,5.97
2022-07-30T11:59:53.416Z,5.30
2022-07-30T12:02:27.670Z,3.63
2022-07-30T12:04:55.238Z,2.88
2022-07-30T12:07:23.243Z,10.27
2022-07-30T12:09:50.493Z,5.65
2022-07-30T12:12:24.628Z,2.55
2022-07-30T12:14:53.225Z,1.77
2022-07-30T12:17:20.448Z,2.73
2022-07-30T12:19:51.571Z,1.65
2022-07-30T12:22:19.831Z,1.52
2022-07-30T12:24:47.159Z,1.48
2022-07-30T12:27:14.431Z,2.65
2022-07-30T12:29:41.826Z,1.67
2022-07-30T12:32:10.982Z,1.40
2022-07-30T12:34:38.189Z,1.77
2022-07-30T12:37:10.172Z,1.40
2022-07-30T12:39:37.871Z,1.65
2022-07-30T12:42:05.532Z,1.55
2022-07-30T12:44:39.910Z,1.42
2022-07-30T12:47:20.704Z,4.25
2022-07-30T12:49:50.385Z,1.88
2022-07-30T12:52:28.177Z,11.00
2022-07-30T12:54:58.622Z,1.70
2022-07-30T12:57:25.923Z,1.88
2022-07-30T13:00:04.087Z,1.92
2022-07-30T13:02:34.811Z,3.10
2022-07-30T13:05:11.730Z,1.90
2022-07-30T13:07:53.836Z,1.17
2022-07-30T13:10:21.495Z,3.47
2022-07-30T13:12:48.862Z,3.30
2022-07-30T13:15:18.953Z,3.35
2022-07-30T13:17:48.144Z,3.08
2022-07-30T13:20:16.731Z,2.25
2022-07-30T13:22:44.631Z,1.33
2022-07-30T13:25:12.991Z,1.40
2022-07-30T13:27:40.532Z,1.88
2022-07-30T13:30:09.304Z,2.22
2022-07-30T13:32:36.536Z,1.92
2022-07-30T13:35:06.140Z,1.48
2022-07-30T13:37:38.413Z,2.53
2022-07-30T13:40:07.259Z,1.50
2022-07-30T13:42:35.071Z,1.80
2022-07-30T13:45:02.272Z,1.75
2022-07-30T13:47:30.918Z,2.43
2022-07-30T13:49:58.120Z,2.88
2022-07-30T13:52:26.739Z,3.42
2022-07-30T13:54:54.487Z,2.37
2022-07-30T13:57:21.715Z,3.20
2022-07-30T13:59:48.970Z,3.03
2022-07-30T14:02:16.363Z,1.42
2022-07-30T14:04:43.536Z,1.73
2022-07-30T14:07:19.436Z,1.92
2022-07-30T14:09:54.506Z,3.15
2022-07-30T14:12:22.626Z,1.63
2022-07-30T14:14:52.745Z,1.30
2022-07-30T14:17:20.129Z,2.00
2022-07-30T14:19:47.640Z,1.45
2022-07-30T14:22:14.856Z,1.40
2022-07-30T14:24:42.045Z,3.78
2022-07-30T14:27:10.816Z,1.73
2022-07-30T14:29:38.154Z,4.97
2022-07-30T14:32:05.807Z,1.60
2022-07-30T14:34:32.991Z,4.03
2022-07-30T14:37:00.980Z,2.10
2022-07-30T14:39:30.623Z,2.85
2022-07-30T14:44:26.595Z,3.17
2022-07-30T14:46:53.926Z,5.55
2022-07-30T14:49:21.359Z,3.05
2022-07-30T14:51:50.204Z,3.30
2022-07-30T14:54:17.403Z,4.78
2022-07-30T14:56:44.759Z,2.00
2022-07-30T14:59:11.955Z,3.42
2022-07-30T15:01:41.969Z,4.20
2022-07-30T15:04:10.628Z,1.63
2022-07-30T15:06:38.279Z,2.03
2022-07-30T15:09:05.565Z,2.15
2022-07-30T15:11:45.035Z,3.42
2022-07-30T15:14:20.603Z,5.05
2022-07-30T15:16:50.003Z,4.88
2022-07-30T15:19:17.184Z,4.13
2022-07-30T15:21:45.102Z,2.13
2022-07-30T15:24:12.356Z,3.78
2022-07-30T15:26:39.548Z,3.15
2022-07-30T15:29:10.364Z,4.32
2022-07-30T15:31:40.310Z,3.28
2022-07-30T15:34:12.657Z,2.20
2022-07-30T15:36:40.157Z,2.70
2022-07-30T15:39:07.872Z,2.10
2022-07-30T15:41:36.508Z,3.97
2022-07-30T15:44:04.509Z,2.72
2022-07-30T15:46:31.766Z,2.53
2022-07-30T15:48:59.166Z,6.32
2022-07-30T15:51:28.061Z,4.22
2022-07-30T15:53:55.408Z,6.15
2022-07-30T15:56:22.561Z,4.35
2022-07-30T15:58:49.768Z,4.20
2022-07-30T16:01:17.366Z,2.10
2022-07-30T16:03:44.814Z,3.40
2022-07-30T16:06:12.134Z,3.50
2022-07-30T16:08:40.703Z,3.63
2022-07-30T16:11:08.013Z,2.63
2022-07-30T16:13:38.175Z,3.25
2022-07-30T16:16:05.644Z,2.67
2022-07-30T16:18:32.875Z,3.58
2022-07-30T16:21:01.365Z,2.08
2022-07-30T16:23:36.659Z,2.43
2022-07-30T16:26:06.034Z,2.10
2022-07-30T16:28:33.219Z,3.78
2022-07-30T16:31:00.567Z,3.55
2022-07-30T16:33:27.952Z,4.13
2022-07-30T16:35:55.418Z,2.88
2022-07-30T16:38:26.088Z,2.72
2022-07-30T16:40:53.433Z,2.22
2022-07-30T16:43:22.070Z,2.25
2022-07-30T16:45:49.326Z,1.93
2022-07-30T16:48:16.882Z,2.85
2022-07-30T16:50:44.776Z,2.72
2022-07-30T16:53:14.468Z,2.72
2022-07-30T16:55:42.377Z,3.33
2022-07-30T16:58:09.622Z,2.58
2022-07-30T17:00:38.724Z,2.97
2022-07-30T17:03:06.001Z,2.83
2022-07-30T17:05:33.172Z,2.03
2022-07-30T17:08:00.562Z,2.15
2022-07-30T17:13:09.178Z,2.85
2022-07-30T17:15:36.628Z,2.97
2022-07-30T17:18:05.541Z,2.97
2022-07-30T17:20:34.283Z,2.08
2022-07-30T17:23:01.997Z,2.25
2022-07-30T17:25:30.024Z,1.60
2022-07-30T17:27:58.455Z,5.90
2022-07-30T17:30:27.030Z,6.75
2022-07-30T17:32:54.693Z,1.92
2022-07-30T17:35:24.855Z,1.95
2022-07-30T17:37:52.558Z,3.17
2022-07-30T17:40:28.804Z,2.22
2022-07-30T17:43:05.723Z,3.10
2022-07-30T17:45:38.153Z,2.95
2022-07-30T17:48:19.689Z,3.40
2022-07-30T17:50:49.917Z,1.85
2022-07-30T17:53:27.613Z,2.15
2022-07-30T17:55:58.277Z,5.38
2022-07-30T17:59:02.175Z,9.48
2022-07-30T18:01:30.285Z,11.70
2022-07-30T18:03:58.513Z,10.57
2022-07-30T18:06:27.927Z,6.50
2022-07-30T18:08:55.625Z,8.88
2022-07-30T18:11:23.697Z,5.15
2022-07-30T18:13:51.072Z,6.85
2022-07-30T18:16:19.351Z,5.07
2022-07-30T18:18:49.901Z,4.85
2022-07-30T18:21:17.107Z,3.88
2022-07-30T18:23:45.914Z,2.33
2022-07-30T18:26:15.432Z,4.50
2022-07-30T18:28:43.454Z,6.72
2022-07-30T18:31:10.734Z,4.93
2022-07-30T18:33:38.026Z,2.83
2022-07-30T18:36:05.859Z,2.70
2022-07-30T18:38:33.144Z,2.92
2022-07-30T18:41:02.987Z,6.68
2022-07-30T18:43:31.692Z,5.25
2022-07-30T18:46:14.945Z,3.72
2022-07-30T18:48:42.208Z,8.40
2022-07-30T18:51:13.703Z,2.75
2022-07-30T18:53:41.671Z,3.28
2022-07-30T18:56:10.414Z,4.30
2022-07-30T18:58:38.494Z,4.97
2022-07-30T19:01:05.992Z,3.47
2022-07-30T19:03:34.982Z,3.50
2022-07-30T19:06:02.323Z,3.80
2022-07-30T19:08:29.844Z,3.45
2022-07-30T19:10:57.329Z,3.35
2022-07-30T19:13:26.247Z,3.28
2022-07-30T19:15:54.151Z,5.00
2022-07-30T19:18:21.517Z,3.25
2022-07-30T19:20:50.756Z,2.70
2022-07-30T19:23:18.766Z,5.25
2022-07-30T19:25:46.045Z,3.75
2022-07-30T19:28:15.520Z,3.25
2022-07-30T19:30:44.420Z,3.17
2022-07-30T19:33:15.656Z,3.28
2022-07-30T19:35:43.820Z,2.58
2022-07-30T19:38:14.441Z,2.88
2022-07-30T19:40:49.371Z,4.07
2022-07-30T19:43:16.705Z,3.20
2022-07-30T19:45:47.168Z,2.75
2022-07-30T19:48:28.465Z,5.00
2022-07-30T19:50:57.667Z,5.70
2022-07-30T19:53:27.973Z,2.80
2022-07-30T19:56:01.749Z,4.75
2022-07-30T19:58:30.837Z,4.80
2022-07-30T20:00:59.736Z,4.93
2022-07-30T20:03:31.850Z,3.20
2022-07-30T20:05:59.873Z,3.63
2022-07-30T20:08:27.333Z,2.08
2022-07-30T20:10:57.755Z,6.03
2022-07-30T20:13:45.214Z,2.35
2022-07-30T20:16:15.053Z,3.65
2022-07-30T20:18:43.094Z,5.72
2022-07-30T20:21:15.297Z,4.00
2022-07-30T20:23:43.439Z,5.65
2022-07-30T20:26:14.210Z,4.60
2022-07-30T20:28:42.080Z,3.35
2022-07-30T20:31:10.552Z,4.50
2022-07-30T20:33:39.318Z,3.65
2022-07-30T20:36:10.040Z,4.00
2022-07-30T20:38:38.995Z,3.25
2022-07-30T20:41:10.261Z,3.30
2022-07-30T20:43:51.577Z,3.80
2022-07-30T20:46:20.202Z,3.75
2022-07-30T20:48:48.896Z,3.65
2022-07-30T20:51:16.242Z,3.67
2022-07-30T20:53:45.402Z,4.70
2022-07-30T20:56:13.492Z,3.58
2022-07-30T20:58:41.096Z,5.28
2022-07-30T21:01:08.349Z,3.97
2022-07-30T21:03:43.647Z,3.42
2022-07-30T21:06:17.230Z,6.18
2022-07-30T21:08:44.444Z,3.95
2022-07-30T21:11:12.556Z,5.20
2022-07-30T21:13:41.315Z,2.53
2022-07-30T21:16:16.045Z,3.15
2022-07-30T21:18:49.653Z,4.22
2022-07-30T21:21:28.575Z,3.13
2022-07-30T21:23:58.369Z,7.47
2022-07-30T21:26:28.149Z,6.13
2022-07-30T21:28:55.789Z,5.00
2022-07-30T21:31:34.991Z,4.57
2022-07-30T21:34:10.805Z,5.22
2022-07-30T21:36:40.550Z,4.93
2022-07-30T21:39:09.875Z,6.38
2022-07-30T21:41:41.219Z,5.07
2022-07-30T21:44:09.843Z,5.22
2022-07-30T21:46:38.162Z,5.80
2022-07-30T21:49:07.947Z,4.50
2022-07-30T21:54:07.391Z,4.97
2022-07-30T21:56:34.846Z,5.43
2022-07-30T21:59:09.014Z,3.95
2022-07-30T22:01:38.022Z,7.75
2022-07-30T22:06:37.952Z,16.58
2022-07-30T22:09:10.495Z,11.27
2022-07-30T22:11:47.283Z,15.23
2022-07-30T22:14:15.723Z,18.52
2022-07-30T22:16:46.090Z,16.13
2022-07-30T22:19:14.613Z,12.82
2022-07-30T22:21:42.296Z,10.52
2022-07-30T22:24:10.932Z,11.65
2022-07-30T22:26:57.806Z,9.73
2022-07-30T22:29:34.338Z,7.25
2022-07-30T22:32:04.129Z,9.82
2022-07-30T22:34:31.642Z,7.93
2022-07-30T22:36:59.272Z,5.75
2022-07-30T22:39:31.909Z,10.18
2022-07-30T22:42:16.185Z,5.17
2022-07-30T22:44:45.891Z,6.28
2022-07-30T22:47:21.087Z,7.00
2022-07-30T22:49:52.859Z,7.82
2022-07-30T22:52:26.589Z,6.38
2022-07-30T22:55:03.365Z,5.97
2022-07-30T22:57:37.812Z,6.78
2022-07-30T23:00:10.842Z,7.40
2022-07-30T23:02:39.463Z,5.97
2022-07-30T23:05:07.683Z,7.80
2022-07-30T23:07:39.603Z,7.70
2022-07-30T23:10:12.330Z,8.85
2022-07-30T23:12:51.265Z,12.73
2022-07-30T23:15:19.987Z,16.70
2022-07-30T23:17:47.801Z,19.92
2022-07-30T23:20:17.653Z,22.98
2022-07-30T23:22:45.017Z,27.00
2022-07-30T23:25:13.970Z,26.33
2022-07-30T23:27:42.109Z,14.88
2022-07-30T23:30:11.292Z,14.52
2022-07-30T23:32:40.148Z,22.42
2022-07-30T23:35:09.321Z,23.77
2022-07-30T23:37:47.801Z,23.73
2022-07-30T23:40:18.891Z,27.60
2022-07-30T23:42:46.578Z,27.65
2022-07-30T23:45:14.082Z,41.03
2022-07-30T23:47:56.512Z,44.15
2022-07-30T23:50:29.642Z,37.58
2022-07-30T23:52:56.947Z,36.03
2022-07-30T23:55:27.294Z,31.17
2022-07-30T23:57:54.992Z,25.40
